sensor_id;sensor_type;location;lat;lon;timestamp;P1;durP1;ratioP1;P2;durP2;ratioP2
56255;SDS011;57229;51.432;-2.598;2023-03-14T00:01:12;11.93;;;3.40;;
56255;SDS011;57229;51.432;-2.598;2023-03-14T00:03:42;10.90;;;3.55;;
56255;SDS011;57229;51.432;-2.598;2023-03-14T00:06:08;7.68;;;3.40;;
56255;SDS011;57229;51.432;-2.598;2023-03-14T00:08:35;9.55;;;3.35;;
56255;SDS011;57229;51.432;-2.598;2023-03-14T00:11:05;6.68;;;3.13;;
56255;SDS011;57229;51.432;-2.598;2023-03-14T00:13:38;7.53;;;3.40;;
56255;SDS011;57229;51.432;-2.598;2023-03-14T00:16:05;7.45;;;3.58;;
56255;SDS011;57229;51.432;-2.598;2023-03-14T00:18:33;3.75;;;2.88;;
56255;SDS011;57229;51.432;-2.598;2023-03-14T00:20:59;8.25;;;4.20;;
56255;SDS011;57229;51.432;-2.598;2023-03-14T00:23:26;10.20;;;3.75;;
56255;SDS011;57229;51.432;-2.598;2023-03-14T00:25:56;6.70;;;3.65;;
56255;SDS011;57229;51.432;-2.598;2023-03-14T00:28:27;6.90;;;3.33;;
56255;SDS011;57229;51.432;-2.598;2023-03-14T00:30:53;10.05;;;3.47;;
56255;SDS011;57229;51.432;-2.598;2023-03-14T00:33:20;4.40;;;2.90;;
56255;SDS011;57229;51.432;-2.598;2023-03-14T00:35:59;11.35;;;3.28;;
56255;SDS011;57229;51.432;-2.598;2023-03-14T00:38:27;6.57;;;3.10;;
56255;SDS011;57229;51.432;-2.598;2023-03-14T00:40:53;7.78;;;3.85;;
56255;SDS011;57229;51.432;-2.598;2023-03-14T00:43:19;6.15;;;3.20;;
56255;SDS011;57229;51.432;-2.598;2023-03-14T00:45:49;8.45;;;3.40;;
56255;SDS011;57229;51.432;-2.598;2023-03-14T00:48:16;10.10;;;3.22;;
56255;SDS011;57229;51.432;-2.598;2023-03-14T00:50:43;7.55;;;3.78;;
56255;SDS011;57229;51.432;-2.598;2023-03-14T00:53:08;6.57;;;3.58;;
56255;SDS011;57229;51.432;-2.598;2023-03-14T00:55:38;12.02;;;3.60;;
56255;SDS011;57229;51.432;-2.598;2023-03-14T00:58:04;6.93;;;3.60;;
56255;SDS011;57229;51.432;-2.598;2023-03-14T01:00:30;5.30;;;3.40;;
56255;SDS011;57229;51.432;-2.598;2023-03-14T01:02:56;7.18;;;3.22;;
56255;SDS011;57229;51.432;-2.598;2023-03-14T01:05:22;9.88;;;3.40;;
56255;SDS011;57229;51.432;-2.598;2023-03-14T01:07:48;7.72;;;3.30;;
56255;SDS011;57229;51.432;-2.598;2023-03-14T01:10:13;8.48;;;3.83;;
56255;SDS011;57229;51.432;-2.598;2023-03-14T01:12:39;11.07;;;3.58;;
56255;SDS011;57229;51.432;-2.598;2023-03-14T01:15:05;7.35;;;4.25;;
56255;SDS011;57229;51.432;-2.598;2023-03-14T01:17:31;7.78;;;3.45;;
56255;SDS011;57229;51.432;-2.598;2023-03-14T01:19:57;8.63;;;3.30;;
56255;SDS011;57229;51.432;-2.598;2023-03-14T01:22:24;12.68;;;3.83;;
56255;SDS011;57229;51.432;-2.598;2023-03-14T01:24:49;8.70;;;3.65;;
56255;SDS011;57229;51.432;-2.598;2023-03-14T01:27:15;6.65;;;3.40;;
56255;SDS011;57229;51.432;-2.598;2023-03-14T01:29:41;6.70;;;3.58;;
56255;SDS011;57229;51.432;-2.598;2023-03-14T01:32:06;6.75;;;3.88;;
56255;SDS011;57229;51.432;-2.598;2023-03-14T01:34:32;8.98;;;3.75;;
56255;SDS011;57229;51.432;-2.598;2023-03-14T01:36:57;11.32;;;3.72;;
56255;SDS011;57229;51.432;-2.598;2023-03-14T01:39:23;9.55;;;3.28;;
56255;SDS011;57229;51.432;-2.598;2023-03-14T01:41:49;5.82;;;3.17;;
56255;SDS011;57229;51.432;-2.598;2023-03-14T01:44:14;7.20;;;3.65;;
56255;SDS011;57229;51.432;-2.598;2023-03-14T01:46:41;7.18;;;3.50;;
56255;SDS011;57229;51.432;-2.598;2023-03-14T01:52:15;8.75;;;3.67;;
56255;SDS011;57229;51.432;-2.598;2023-03-14T01:54:49;6.50;;;3.25;;
56255;SDS011;57229;51.432;-2.598;2023-03-14T01:57:37;7.72;;;3.10;;
56255;SDS011;57229;51.432;-2.598;2023-03-14T02:00:07;6.20;;;3.30;;
56255;SDS011;57229;51.432;-2.598;2023-03-14T02:02:40;10.88;;;3.25;;
56255;SDS011;57229;51.432;-2.598;2023-03-14T02:05:12;16.90;;;3.80;;
56255;SDS011;57229;51.432;-2.598;2023-03-14T02:07:42;17.02;;;3.75;;
56255;SDS011;57229;51.432;-2.598;2023-03-14T02:10:10;6.57;;;3.22;;
56255;SDS011;57229;51.432;-2.598;2023-03-14T02:12:36;10.15;;;3.17;;
56255;SDS011;57229;51.432;-2.598;2023-03-14T02:15:02;8.48;;;3.22;;
56255;SDS011;57229;51.432;-2.598;2023-03-14T02:17:29;12.45;;;3.70;;
56255;SDS011;57229;51.432;-2.598;2023-03-14T02:22:45;8.55;;;3.88;;
56255;SDS011;57229;51.432;-2.598;2023-03-14T02:25:33;14.48;;;3.45;;
56255;SDS011;57229;51.432;-2.598;2023-03-14T02:28:02;12.27;;;3.10;;
56255;SDS011;57229;51.432;-2.598;2023-03-14T02:30:29;11.65;;;3.35;;
56255;SDS011;57229;51.432;-2.598;2023-03-14T02:33:00;11.93;;;4.00;;
56255;SDS011;57229;51.432;-2.598;2023-03-14T02:35:33;13.98;;;4.20;;
56255;SDS011;57229;51.432;-2.598;2023-03-14T02:40:46;13.80;;;3.70;;
56255;SDS011;57229;51.432;-2.598;2023-03-14T02:43:12;9.30;;;4.00;;
56255;SDS011;57229;51.432;-2.598;2023-03-14T02:45:39;11.15;;;3.58;;
56255;SDS011;57229;51.432;-2.598;2023-03-14T02:48:14;10.40;;;3.40;;
56255;SDS011;57229;51.432;-2.598;2023-03-14T02:50:43;10.75;;;3.83;;
56255;SDS011;57229;51.432;-2.598;2023-03-14T02:53:12;9.77;;;3.55;;
56255;SDS011;57229;51.432;-2.598;2023-03-14T02:55:44;12.45;;;3.40;;
56255;SDS011;57229;51.432;-2.598;2023-03-14T02:58:10;7.80;;;3.40;;
56255;SDS011;57229;51.432;-2.598;2023-03-14T03:00:36;14.95;;;3.70;;
56255;SDS011;57229;51.432;-2.598;2023-03-14T03:03:01;9.60;;;3.47;;
56255;SDS011;57229;51.432;-2.598;2023-03-14T03:05:27;9.30;;;3.40;;
56255;SDS011;57229;51.432;-2.598;2023-03-14T03:07:53;6.95;;;4.05;;
56255;SDS011;57229;51.432;-2.598;2023-03-14T03:10:18;11.63;;;3.35;;
56255;SDS011;57229;51.432;-2.598;2023-03-14T03:12:44;16.73;;;3.63;;
56255;SDS011;57229;51.432;-2.598;2023-03-14T03:15:10;12.32;;;3.40;;
56255;SDS011;57229;51.432;-2.598;2023-03-14T03:17:35;10.52;;;3.75;;
56255;SDS011;57229;51.432;-2.598;2023-03-14T03:20:01;12.38;;;4.10;;
56255;SDS011;57229;51.432;-2.598;2023-03-14T03:22:29;9.20;;;3.67;;
56255;SDS011;57229;51.432;-2.598;2023-03-14T03:24:55;9.90;;;3.50;;
56255;SDS011;57229;51.432;-2.598;2023-03-14T03:27:21;11.23;;;3.70;;
56255;SDS011;57229;51.432;-2.598;2023-03-14T03:29:46;11.07;;;4.38;;
56255;SDS011;57229;51.432;-2.598;2023-03-14T03:32:12;8.32;;;3.47;;
56255;SDS011;57229;51.432;-2.598;2023-03-14T03:34:38;11.38;;;3.58;;
56255;SDS011;57229;51.432;-2.598;2023-03-14T03:37:03;9.75;;;3.83;;
56255;SDS011;57229;51.432;-2.598;2023-03-14T03:39:29;9.98;;;3.63;;
56255;SDS011;57229;51.432;-2.598;2023-03-14T03:41:55;12.68;;;3.25;;
56255;SDS011;57229;51.432;-2.598;2023-03-14T03:44:20;9.82;;;3.25;;
56255;SDS011;57229;51.432;-2.598;2023-03-14T03:46:46;11.63;;;3.42;;
56255;SDS011;57229;51.432;-2.598;2023-03-14T03:49:12;10.23;;;3.70;;
56255;SDS011;57229;51.432;-2.598;2023-03-14T03:51:38;11.25;;;3.25;;
56255;SDS011;57229;51.432;-2.598;2023-03-14T03:54:05;8.57;;;3.80;;
56255;SDS011;57229;51.432;-2.598;2023-03-14T03:56:30;10.23;;;3.65;;
56255;SDS011;57229;51.432;-2.598;2023-03-14T03:58:56;10.45;;;3.47;;
56255;SDS011;57229;51.432;-2.598;2023-03-14T04:01:22;17.08;;;4.00;;
56255;SDS011;57229;51.432;-2.598;2023-03-14T04:03:48;13.40;;;4.13;;
56255;SDS011;57229;51.432;-2.598;2023-03-14T04:06:13;9.32;;;3.50;;
56255;SDS011;57229;51.432;-2.598;2023-03-14T04:08:39;9.27;;;3.45;;
56255;SDS011;57229;51.432;-2.598;2023-03-14T04:11:08;17.17;;;3.58;;
56255;SDS011;57229;51.432;-2.598;2023-03-14T04:13:34;6.82;;;3.40;;
56255;SDS011;57229;51.432;-2.598;2023-03-14T04:16:00;13.93;;;3.92;;
56255;SDS011;57229;51.432;-2.598;2023-03-14T04:18:25;8.80;;;3.78;;
56255;SDS011;57229;51.432;-2.598;2023-03-14T04:20:51;8.48;;;3.20;;
56255;SDS011;57229;51.432;-2.598;2023-03-14T04:23:18;12.02;;;4.55;;
56255;SDS011;57229;51.432;-2.598;2023-03-14T04:25:44;8.60;;;3.28;;
56255;SDS011;57229;51.432;-2.598;2023-03-14T04:28:09;11.57;;;3.67;;
56255;SDS011;57229;51.432;-2.598;2023-03-14T04:30:35;14.77;;;3.78;;
56255;SDS011;57229;51.432;-2.598;2023-03-14T04:33:01;5.13;;;3.65;;
56255;SDS011;57229;51.432;-2.598;2023-03-14T04:35:26;10.02;;;3.58;;
56255;SDS011;57229;51.432;-2.598;2023-03-14T04:37:52;8.45;;;3.58;;
56255;SDS011;57229;51.432;-2.598;2023-03-14T04:40:18;9.27;;;3.28;;
56255;SDS011;57229;51.432;-2.598;2023-03-14T04:42:43;10.60;;;3.75;;
56255;SDS011;57229;51.432;-2.598;2023-03-14T04:45:09;7.65;;;3.28;;
56255;SDS011;57229;51.432;-2.598;2023-03-14T04:47:35;13.10;;;3.70;;
56255;SDS011;57229;51.432;-2.598;2023-03-14T04:50:01;8.35;;;3.60;;
56255;SDS011;57229;51.432;-2.598;2023-03-14T04:52:27;10.57;;;3.40;;
56255;SDS011;57229;51.432;-2.598;2023-03-14T04:54:52;16.60;;;4.15;;
56255;SDS011;57229;51.432;-2.598;2023-03-14T04:57:18;12.02;;;3.50;;
56255;SDS011;57229;51.432;-2.598;2023-03-14T04:59:44;13.80;;;3.75;;
56255;SDS011;57229;51.432;-2.598;2023-03-14T05:02:09;16.85;;;3.60;;
56255;SDS011;57229;51.432;-2.598;2023-03-14T05:04:35;9.13;;;3.75;;
56255;SDS011;57229;51.432;-2.598;2023-03-14T05:07:01;6.38;;;3.30;;
56255;SDS011;57229;51.432;-2.598;2023-03-14T05:09:26;8.63;;;3.40;;
56255;SDS011;57229;51.432;-2.598;2023-03-14T05:11:52;9.10;;;3.38;;
56255;SDS011;57229;51.432;-2.598;2023-03-14T05:14:18;8.00;;;3.65;;
56255;SDS011;57229;51.432;-2.598;2023-03-14T05:16:43;15.15;;;3.70;;
56255;SDS011;57229;51.432;-2.598;2023-03-14T05:19:10;16.52;;;3.88;;
56255;SDS011;57229;51.432;-2.598;2023-03-14T05:21:36;6.90;;;3.30;;
56255;SDS011;57229;51.432;-2.598;2023-03-14T05:24:02;9.10;;;3.53;;
56255;SDS011;57229;51.432;-2.598;2023-03-14T05:26:28;17.58;;;3.97;;
56255;SDS011;57229;51.432;-2.598;2023-03-14T05:28:53;9.40;;;3.65;;
56255;SDS011;57229;51.432;-2.598;2023-03-14T05:31:19;8.55;;;3.67;;
56255;SDS011;57229;51.432;-2.598;2023-03-14T05:33:45;6.85;;;3.50;;
56255;SDS011;57229;51.432;-2.598;2023-03-14T05:36:11;11.70;;;3.85;;
56255;SDS011;57229;51.432;-2.598;2023-03-14T05:38:36;8.43;;;3.85;;
56255;SDS011;57229;51.432;-2.598;2023-03-14T05:41:02;8.65;;;3.28;;
56255;SDS011;57229;51.432;-2.598;2023-03-14T05:43:28;9.20;;;3.58;;
56255;SDS011;57229;51.432;-2.598;2023-03-14T05:45:54;10.02;;;3.70;;
56255;SDS011;57229;51.432;-2.598;2023-03-14T05:48:20;7.95;;;3.33;;
56255;SDS011;57229;51.432;-2.598;2023-03-14T05:50:46;14.35;;;3.38;;
56255;SDS011;57229;51.432;-2.598;2023-03-14T05:53:12;9.50;;;3.38;;
56255;SDS011;57229;51.432;-2.598;2023-03-14T05:55:39;12.65;;;3.70;;
56255;SDS011;57229;51.432;-2.598;2023-03-14T05:58:05;11.98;;;3.47;;
56255;SDS011;57229;51.432;-2.598;2023-03-14T06:00:31;8.65;;;3.63;;
56255;SDS011;57229;51.432;-2.598;2023-03-14T06:02:56;10.48;;;4.07;;
56255;SDS011;57229;51.432;-2.598;2023-03-14T06:05:22;9.25;;;3.72;;
56255;SDS011;57229;51.432;-2.598;2023-03-14T06:07:48;17.73;;;4.40;;
56255;SDS011;57229;51.432;-2.598;2023-03-14T06:10:14;13.00;;;3.60;;
56255;SDS011;57229;51.432;-2.598;2023-03-14T06:12:40;10.07;;;4.10;;
56255;SDS011;57229;51.432;-2.598;2023-03-14T06:15:06;12.60;;;3.80;;
56255;SDS011;57229;51.432;-2.598;2023-03-14T06:17:32;9.38;;;3.60;;
56255;SDS011;57229;51.432;-2.598;2023-03-14T06:19:57;10.45;;;3.90;;
56255;SDS011;57229;51.432;-2.598;2023-03-14T06:22:23;5.38;;;3.50;;
56255;SDS011;57229;51.432;-2.598;2023-03-14T06:24:49;10.98;;;3.40;;
56255;SDS011;57229;51.432;-2.598;2023-03-14T06:27:14;9.52;;;3.63;;
56255;SDS011;57229;51.432;-2.598;2023-03-14T06:29:40;12.30;;;3.80;;
56255;SDS011;57229;51.432;-2.598;2023-03-14T06:32:06;10.63;;;3.95;;
56255;SDS011;57229;51.432;-2.598;2023-03-14T06:34:31;11.90;;;3.53;;
56255;SDS011;57229;51.432;-2.598;2023-03-14T06:37:15;8.93;;;3.60;;
56255;SDS011;57229;51.432;-2.598;2023-03-14T06:39:55;7.97;;;3.90;;
56255;SDS011;57229;51.432;-2.598;2023-03-14T06:42:21;8.40;;;4.10;;
56255;SDS011;57229;51.432;-2.598;2023-03-14T06:44:47;8.65;;;3.50;;
56255;SDS011;57229;51.432;-2.598;2023-03-14T06:47:13;9.68;;;3.50;;
56255;SDS011;57229;51.432;-2.598;2023-03-14T06:49:39;8.95;;;3.60;;
56255;SDS011;57229;51.432;-2.598;2023-03-14T06:52:05;7.43;;;3.20;;
56255;SDS011;57229;51.432;-2.598;2023-03-14T06:54:30;7.03;;;3.63;;
56255;SDS011;57229;51.432;-2.598;2023-03-14T06:56:56;11.20;;;3.30;;
56255;SDS011;57229;51.432;-2.598;2023-03-14T07:02:39;8.88;;;3.63;;
56255;SDS011;57229;51.432;-2.598;2023-03-14T07:05:05;7.85;;;3.60;;
56255;SDS011;57229;51.432;-2.598;2023-03-14T07:07:31;13.98;;;3.70;;
56255;SDS011;57229;51.432;-2.598;2023-03-14T07:09:57;14.10;;;4.03;;
56255;SDS011;57229;51.432;-2.598;2023-03-14T07:12:23;10.90;;;4.25;;
56255;SDS011;57229;51.432;-2.598;2023-03-14T07:14:49;11.85;;;3.88;;
56255;SDS011;57229;51.432;-2.598;2023-03-14T07:17:14;8.63;;;3.70;;
56255;SDS011;57229;51.432;-2.598;2023-03-14T07:19:40;8.32;;;3.33;;
56255;SDS011;57229;51.432;-2.598;2023-03-14T07:22:06;8.50;;;3.78;;
56255;SDS011;57229;51.432;-2.598;2023-03-14T07:24:31;8.27;;;3.70;;
56255;SDS011;57229;51.432;-2.598;2023-03-14T07:26:57;8.90;;;3.28;;
56255;SDS011;57229;51.432;-2.598;2023-03-14T07:29:26;7.55;;;3.35;;
56255;SDS011;57229;51.432;-2.598;2023-03-14T07:31:52;8.32;;;3.38;;
56255;SDS011;57229;51.432;-2.598;2023-03-14T07:34:17;11.50;;;3.60;;
56255;SDS011;57229;51.432;-2.598;2023-03-14T07:36:44;10.80;;;3.90;;
56255;SDS011;57229;51.432;-2.598;2023-03-14T07:39:10;10.40;;;3.60;;
56255;SDS011;57229;51.432;-2.598;2023-03-14T07:41:35;6.45;;;3.17;;
56255;SDS011;57229;51.432;-2.598;2023-03-14T07:50:34;9.98;;;3.65;;
56255;SDS011;57229;51.432;-2.598;2023-03-14T07:53:06;7.47;;;3.42;;
56255;SDS011;57229;51.432;-2.598;2023-03-14T07:55:32;7.38;;;3.42;;
56255;SDS011;57229;51.432;-2.598;2023-03-14T07:58:05;8.90;;;3.67;;
56255;SDS011;57229;51.432;-2.598;2023-03-14T08:00:31;7.57;;;3.95;;
56255;SDS011;57229;51.432;-2.598;2023-03-14T08:06:27;6.75;;;3.60;;
56255;SDS011;57229;51.432;-2.598;2023-03-14T08:08:52;9.20;;;3.75;;
56255;SDS011;57229;51.432;-2.598;2023-03-14T08:11:18;8.52;;;3.28;;
56255;SDS011;57229;51.432;-2.598;2023-03-14T08:13:44;9.10;;;3.95;;
56255;SDS011;57229;51.432;-2.598;2023-03-14T08:16:15;7.57;;;3.50;;
56255;SDS011;57229;51.432;-2.598;2023-03-14T08:18:44;5.53;;;3.42;;
56255;SDS011;57229;51.432;-2.598;2023-03-14T08:21:10;5.63;;;3.72;;
56255;SDS011;57229;51.432;-2.598;2023-03-14T08:23:36;12.02;;;3.80;;
56255;SDS011;57229;51.432;-2.598;2023-03-14T08:26:02;7.22;;;3.72;;
56255;SDS011;57229;51.432;-2.598;2023-03-14T08:28:31;6.20;;;3.42;;
56255;SDS011;57229;51.432;-2.598;2023-03-14T08:31:01;10.23;;;3.63;;
56255;SDS011;57229;51.432;-2.598;2023-03-14T08:33:33;9.98;;;3.30;;
56255;SDS011;57229;51.432;-2.598;2023-03-14T08:36:08;11.05;;;3.85;;
56255;SDS011;57229;51.432;-2.598;2023-03-14T08:38:35;6.53;;;3.45;;
56255;SDS011;57229;51.432;-2.598;2023-03-14T08:41:02;9.50;;;3.22;;
56255;SDS011;57229;51.432;-2.598;2023-03-14T08:43:46;5.15;;;3.17;;
56255;SDS011;57229;51.432;-2.598;2023-03-14T08:46:12;4.65;;;3.35;;
56255;SDS011;57229;51.432;-2.598;2023-03-14T08:48:38;4.53;;;2.92;;
56255;SDS011;57229;51.432;-2.598;2023-03-14T08:51:13;5.55;;;3.30;;
56255;SDS011;57229;51.432;-2.598;2023-03-14T08:53:42;6.70;;;3.70;;
56255;SDS011;57229;51.432;-2.598;2023-03-14T09:06:12;4.18;;;3.42;;
56255;SDS011;57229;51.432;-2.598;2023-03-14T09:12:04;3.40;;;3.10;;
56255;SDS011;57229;51.432;-2.598;2023-03-14T09:14:30;3.33;;;2.80;;
56255;SDS011;57229;51.432;-2.598;2023-03-14T09:16:57;3.42;;;3.10;;
56255;SDS011;57229;51.432;-2.598;2023-03-14T09:19:29;3.00;;;2.80;;
56255;SDS011;57229;51.432;-2.598;2023-03-14T09:21:55;3.28;;;3.08;;
56255;SDS011;57229;51.432;-2.598;2023-03-14T09:24:21;3.40;;;3.20;;
56255;SDS011;57229;51.432;-2.598;2023-03-14T09:26:47;3.08;;;2.80;;
56255;SDS011;57229;51.432;-2.598;2023-03-14T09:29:30;3.45;;;2.70;;
56255;SDS011;57229;51.432;-2.598;2023-03-14T09:31:57;3.47;;;3.17;;
56255;SDS011;57229;51.432;-2.598;2023-03-14T09:34:53;3.40;;;3.10;;
56255;SDS011;57229;51.432;-2.598;2023-03-14T09:37:20;5.45;;;3.10;;
56255;SDS011;57229;51.432;-2.598;2023-03-14T09:39:49;3.35;;;3.05;;
56255;SDS011;57229;51.432;-2.598;2023-03-14T09:42:16;3.33;;;2.90;;
56255;SDS011;57229;51.432;-2.598;2023-03-14T09:44:57;3.13;;;2.90;;
56255;SDS011;57229;51.432;-2.598;2023-03-14T09:47:39;3.00;;;2.80;;
56255;SDS011;57229;51.432;-2.598;2023-03-14T09:50:44;3.55;;;3.22;;
56255;SDS011;57229;51.432;-2.598;2023-03-14T09:53:32;4.32;;;3.05;;
56255;SDS011;57229;51.432;-2.598;2023-03-14T10:06:12;3.28;;;3.03;;
56255;SDS011;57229;51.432;-2.598;2023-03-14T10:08:44;3.42;;;3.13;;
56255;SDS011;57229;51.432;-2.598;2023-03-14T10:11:15;3.55;;;2.88;;
56255;SDS011;57229;51.432;-2.598;2023-03-14T10:14:04;5.00;;;3.00;;
56255;SDS011;57229;51.432;-2.598;2023-03-14T10:16:53;3.03;;;2.83;;
56255;SDS011;57229;51.432;-2.598;2023-03-14T10:20:14;2.95;;;2.70;;
56255;SDS011;57229;51.432;-2.598;2023-03-14T10:23:18;3.97;;;2.85;;
56255;SDS011;57229;51.432;-2.598;2023-03-14T10:29:18;2.58;;;2.47;;
56255;SDS011;57229;51.432;-2.598;2023-03-14T10:34:34;2.72;;;2.53;;
56255;SDS011;57229;51.432;-2.598;2023-03-14T10:40:49;2.92;;;2.75;;
56255;SDS011;57229;51.432;-2.598;2023-03-14T10:43:22;2.75;;;2.55;;
56255;SDS011;57229;51.432;-2.598;2023-03-14T10:46:14;2.63;;;2.40;;
56255;SDS011;57229;51.432;-2.598;2023-03-14T10:48:44;2.67;;;2.47;;
56255;SDS011;57229;51.432;-2.598;2023-03-14T10:51:27;2.85;;;2.60;;
56255;SDS011;57229;51.432;-2.598;2023-03-14T11:03:26;3.28;;;2.35;;
56255;SDS011;57229;51.432;-2.598;2023-03-14T11:05:59;2.90;;;2.70;;
56255;SDS011;57229;51.432;-2.598;2023-03-14T11:08:55;2.70;;;2.55;;
56255;SDS011;57229;51.432;-2.598;2023-03-14T11:11:30;2.70;;;2.50;;
56255;SDS011;57229;51.432;-2.598;2023-03-14T11:14:15;3.47;;;2.67;;
56255;SDS011;57229;51.432;-2.598;2023-03-14T11:17:02;3.50;;;3.20;;
56255;SDS011;57229;51.432;-2.598;2023-03-14T11:23:24;3.00;;;2.72;;
56255;SDS011;57229;51.432;-2.598;2023-03-14T11:45:44;3.08;;;2.78;;
56255;SDS011;57229;51.432;-2.598;2023-03-14T11:48:31;3.22;;;2.83;;
56255;SDS011;57229;51.432;-2.598;2023-03-14T11:51:23;2.80;;;2.58;;
56255;SDS011;57229;51.432;-2.598;2023-03-14T11:57:17;2.90;;;2.70;;
56255;SDS011;57229;51.432;-2.598;2023-03-14T12:03:17;2.42;;;2.33;;
56255;SDS011;57229;51.432;-2.598;2023-03-14T12:09:05;2.83;;;2.63;;
56255;SDS011;57229;51.432;-2.598;2023-03-14T12:24:30;2.97;;;2.60;;
56255;SDS011;57229;51.432;-2.598;2023-03-14T12:26:59;2.60;;;2.40;;
56255;SDS011;57229;51.432;-2.598;2023-03-14T12:35:58;3.83;;;2.40;;
56255;SDS011;57229;51.432;-2.598;2023-03-14T12:45:30;10.18;;;2.85;;
56255;SDS011;57229;51.432;-2.598;2023-03-14T12:48:25;4.47;;;3.20;;
56255;SDS011;57229;51.432;-2.598;2023-03-14T13:04:16;3.17;;;2.85;;
56255;SDS011;57229;51.432;-2.598;2023-03-14T13:06:52;5.18;;;3.10;;
56255;SDS011;57229;51.432;-2.598;2023-03-14T13:12:03;4.57;;;2.70;;
56255;SDS011;57229;51.432;-2.598;2023-03-14T13:14:40;3.05;;;2.60;;
56255;SDS011;57229;51.432;-2.598;2023-03-14T13:21:21;4.05;;;3.00;;
56255;SDS011;57229;51.432;-2.598;2023-03-14T13:26:34;5.60;;;3.20;;
56255;SDS011;57229;51.432;-2.598;2023-03-14T13:29:18;3.90;;;3.05;;
56255;SDS011;57229;51.432;-2.598;2023-03-14T13:31:50;3.95;;;3.08;;
56255;SDS011;57229;51.432;-2.598;2023-03-14T13:34:30;4.55;;;3.00;;
56255;SDS011;57229;51.432;-2.598;2023-03-14T13:37:03;5.00;;;2.60;;
56255;SDS011;57229;51.432;-2.598;2023-03-14T13:39:28;7.28;;;3.15;;
56255;SDS011;57229;51.432;-2.598;2023-03-14T13:41:59;6.70;;;3.40;;
56255;SDS011;57229;51.432;-2.598;2023-03-14T13:44:27;5.30;;;3.10;;
56255;SDS011;57229;51.432;-2.598;2023-03-14T13:47:03;5.70;;;3.38;;
56255;SDS011;57229;51.432;-2.598;2023-03-14T13:49:32;6.53;;;3.22;;
56255;SDS011;57229;51.432;-2.598;2023-03-14T13:52:00;7.03;;;3.42;;
56255;SDS011;57229;51.432;-2.598;2023-03-14T13:54:45;6.93;;;3.50;;
56255;SDS011;57229;51.432;-2.598;2023-03-14T13:57:11;6.10;;;3.28;;
56255;SDS011;57229;51.432;-2.598;2023-03-14T13:59:39;5.20;;;3.35;;
56255;SDS011;57229;51.432;-2.598;2023-03-14T14:02:18;8.68;;;3.72;;
56255;SDS011;57229;51.432;-2.598;2023-03-14T14:05:10;9.07;;;3.92;;
56255;SDS011;57229;51.432;-2.598;2023-03-14T14:07:42;7.47;;;3.70;;
56255;SDS011;57229;51.432;-2.598;2023-03-14T14:10:13;7.95;;;3.60;;
56255;SDS011;57229;51.432;-2.598;2023-03-14T14:15:29;11.68;;;4.13;;
56255;SDS011;57229;51.432;-2.598;2023-03-14T14:18:20;5.93;;;3.42;;
56255;SDS011;57229;51.432;-2.598;2023-03-14T14:20:50;10.48;;;3.83;;
56255;SDS011;57229;51.432;-2.598;2023-03-14T14:23:20;7.03;;;3.90;;
56255;SDS011;57229;51.432;-2.598;2023-03-14T14:26:20;12.35;;;4.05;;
56255;SDS011;57229;51.432;-2.598;2023-03-14T14:28:59;8.15;;;4.35;;
56255;SDS011;57229;51.432;-2.598;2023-03-14T14:31:27;9.15;;;3.70;;
56255;SDS011;57229;51.432;-2.598;2023-03-14T14:34:38;9.75;;;3.70;;
56255;SDS011;57229;51.432;-2.598;2023-03-14T14:37:26;7.65;;;4.35;;
56255;SDS011;57229;51.432;-2.598;2023-03-14T14:40:22;10.27;;;4.35;;
56255;SDS011;57229;51.432;-2.598;2023-03-14T14:42:53;6.90;;;3.97;;
56255;SDS011;57229;51.432;-2.598;2023-03-14T14:45:26;7.38;;;4.38;;
56255;SDS011;57229;51.432;-2.598;2023-03-14T14:47:54;10.20;;;4.47;;
56255;SDS011;57229;51.432;-2.598;2023-03-14T14:50:50;11.98;;;4.85;;
56255;SDS011;57229;51.432;-2.598;2023-03-14T14:53:37;14.50;;;4.88;;
56255;SDS011;57229;51.432;-2.598;2023-03-14T14:56:30;12.05;;;4.53;;
56255;SDS011;57229;51.432;-2.598;2023-03-14T14:59:00;10.55;;;4.65;;
56255;SDS011;57229;51.432;-2.598;2023-03-14T15:05:01;8.70;;;4.45;;
56255;SDS011;57229;51.432;-2.598;2023-03-14T15:07:33;9.15;;;4.35;;
56255;SDS011;57229;51.432;-2.598;2023-03-14T15:11:00;14.50;;;3.92;;
56255;SDS011;57229;51.432;-2.598;2023-03-14T15:13:43;6.50;;;3.88;;
56255;SDS011;57229;51.432;-2.598;2023-03-14T15:16:22;12.32;;;4.55;;
56255;SDS011;57229;51.432;-2.598;2023-03-14T15:22:52;6.95;;;3.47;;
56255;SDS011;57229;51.432;-2.598;2023-03-14T15:25:27;7.35;;;4.63;;
56255;SDS011;57229;51.432;-2.598;2023-03-14T15:28:23;9.95;;;3.65;;
56255;SDS011;57229;51.432;-2.598;2023-03-14T15:30:51;4.97;;;3.30;;
56255;SDS011;57229;51.432;-2.598;2023-03-14T15:33:22;7.40;;;3.60;;
56255;SDS011;57229;51.432;-2.598;2023-03-14T15:35:55;8.00;;;4.13;;
56255;SDS011;57229;51.432;-2.598;2023-03-14T15:38:22;8.18;;;4.13;;
56255;SDS011;57229;51.432;-2.598;2023-03-14T15:40:52;7.90;;;4.22;;
56255;SDS011;57229;51.432;-2.598;2023-03-14T15:43:22;8.27;;;4.38;;
56255;SDS011;57229;51.432;-2.598;2023-03-14T15:45:47;11.70;;;4.53;;
56255;SDS011;57229;51.432;-2.598;2023-03-14T15:51:11;10.85;;;3.97;;
56255;SDS011;57229;51.432;-2.598;2023-03-14T15:53:50;12.80;;;4.00;;
56255;SDS011;57229;51.432;-2.598;2023-03-14T15:56:20;14.55;;;4.22;;
56255;SDS011;57229;51.432;-2.598;2023-03-14T15:58:57;11.68;;;4.00;;
56255;SDS011;57229;51.432;-2.598;2023-03-14T16:01:26;11.50;;;4.10;;
56255;SDS011;57229;51.432;-2.598;2023-03-14T16:03:52;11.65;;;3.90;;
56255;SDS011;57229;51.432;-2.598;2023-03-14T16:06:30;7.07;;;3.85;;
56255;SDS011;57229;51.432;-2.598;2023-03-14T16:09:01;11.43;;;4.05;;
56255;SDS011;57229;51.432;-2.598;2023-03-14T16:11:29;9.45;;;3.65;;
56255;SDS011;57229;51.432;-2.598;2023-03-14T16:13:56;7.53;;;3.72;;
56255;SDS011;57229;51.432;-2.598;2023-03-14T16:16:23;12.23;;;4.82;;
56255;SDS011;57229;51.432;-2.598;2023-03-14T16:19:02;14.25;;;4.28;;
56255;SDS011;57229;51.432;-2.598;2023-03-14T16:21:30;10.65;;;4.18;;
56255;SDS011;57229;51.432;-2.598;2023-03-14T16:23:57;7.10;;;3.67;;
56255;SDS011;57229;51.432;-2.598;2023-03-14T16:26:27;8.82;;;3.85;;
56255;SDS011;57229;51.432;-2.598;2023-03-14T16:28:52;6.60;;;3.78;;
56255;SDS011;57229;51.432;-2.598;2023-03-14T16:31:28;4.85;;;3.40;;
56255;SDS011;57229;51.432;-2.598;2023-03-14T16:33:55;12.43;;;4.10;;
56255;SDS011;57229;51.432;-2.598;2023-03-14T16:36:27;4.63;;;3.50;;
56255;SDS011;57229;51.432;-2.598;2023-03-14T16:38:56;10.05;;;3.72;;
56255;SDS011;57229;51.432;-2.598;2023-03-14T16:41:46;5.45;;;3.45;;
56255;SDS011;57229;51.432;-2.598;2023-03-14T16:44:40;5.45;;;3.47;;
56255;SDS011;57229;51.432;-2.598;2023-03-14T16:51:00;5.72;;;3.30;;
56255;SDS011;57229;51.432;-2.598;2023-03-14T16:54:01;7.63;;;3.70;;
56255;SDS011;57229;51.432;-2.598;2023-03-14T16:56:37;9.20;;;3.33;;
56255;SDS011;57229;51.432;-2.598;2023-03-14T17:02:18;9.98;;;3.30;;
56255;SDS011;57229;51.432;-2.598;2023-03-14T17:04:54;7.00;;;3.63;;
56255;SDS011;57229;51.432;-2.598;2023-03-14T17:07:55;5.70;;;3.22;;
56255;SDS011;57229;51.432;-2.598;2023-03-14T17:10:20;5.47;;;3.70;;
56255;SDS011;57229;51.432;-2.598;2023-03-14T17:12:46;8.30;;;3.47;;
56255;SDS011;57229;51.432;-2.598;2023-03-14T17:15:12;13.35;;;3.47;;
56255;SDS011;57229;51.432;-2.598;2023-03-14T17:17:38;6.32;;;3.78;;
56255;SDS011;57229;51.432;-2.598;2023-03-14T17:20:08;8.77;;;4.05;;
56255;SDS011;57229;51.432;-2.598;2023-03-14T17:25:40;11.55;;;4.13;;
56255;SDS011;57229;51.432;-2.598;2023-03-14T17:28:50;8.40;;;3.58;;
56255;SDS011;57229;51.432;-2.598;2023-03-14T17:31:18;9.68;;;3.60;;
56255;SDS011;57229;51.432;-2.598;2023-03-14T17:36:59;12.00;;;4.13;;
56255;SDS011;57229;51.432;-2.598;2023-03-14T17:39:32;9.73;;;4.30;;
56255;SDS011;57229;51.432;-2.598;2023-03-14T17:42:02;13.55;;;4.22;;
56255;SDS011;57229;51.432;-2.598;2023-03-14T17:44:49;13.13;;;4.60;;
56255;SDS011;57229;51.432;-2.598;2023-03-14T17:47:15;13.85;;;4.60;;